createdAt,value
2023-02-16T00:04:40.529Z,98850.88
2023-02-16T00:10:01.437Z,98855.63
2023-02-16T00:15:22.412Z,98850.13
2023-02-16T00:20:43.604Z,98838.63
2023-02-16T00:26:05.166Z,98849.09
2023-02-16T00:31:27.888Z,98849.09
2023-02-16T00:36:49.650Z,98854.13
2023-02-16T00:42:24.293Z,98862.84
2023-02-16T00:47:46.876Z,98841.09
2023-02-16T00:53:08.084Z,98843.63
2023-02-16T00:58:33.857Z,98853.59
2023-02-16T01:03:55.026Z,98857.84
2023-02-16T01:09:37.327Z,98836.81
2023-02-16T01:14:58.734Z,98832.84
2023-02-16T01:20:21.586Z,98833.84
2023-02-16T01:25:42.413Z,98836.09
2023-02-16T01:31:03.756Z,98830.88
2023-02-16T01:36:29.892Z,98827.88
2023-02-16T01:42:02.178Z,98821.38
2023-02-16T01:47:49.728Z,98815.13
2023-02-16T01:53:23.136Z,98805.66
2023-02-16T01:58:50.516Z,98809.44
2023-02-16T02:04:36.419Z,98791.69
2023-02-16T02:10:03.812Z,98783.47
2023-02-16T02:15:26.893Z,98786.22
2023-02-16T02:21:37.566Z,98780.97
2023-02-16T02:27:30.028Z,98787.69
2023-02-16T02:33:17.245Z,98791.47
2023-02-16T02:39:16.024Z,98767.22
2023-02-16T02:44:50.121Z,98762.47
2023-02-16T02:50:42.361Z,98763.75
2023-02-16T02:56:22.061Z,98753.28
2023-02-16T03:01:45.386Z,98751.75
2023-02-16T03:07:08.567Z,98746.00
2023-02-16T03:12:47.507Z,98755.72
2023-02-16T03:18:27.523Z,98763.22
2023-02-16T03:24:07.052Z,98760.22
2023-02-16T03:29:28.155Z,98756.97
2023-02-16T03:34:48.835Z,98750.72
2023-02-16T03:40:29.933Z,98748.47
2023-02-16T03:45:50.932Z,98752.00
2023-02-16T03:51:11.637Z,98755.72
2023-02-16T03:56:32.543Z,98760.25
2023-02-16T04:01:53.119Z,98744.00
2023-02-16T04:07:13.932Z,98755.97
2023-02-16T04:12:37.449Z,98750.97
2023-02-16T04:17:58.414Z,98766.72
2023-02-16T04:23:19.558Z,98766.72
2023-02-16T04:28:40.150Z,98760.47
2023-02-16T04:34:01.070Z,98758.75
2023-02-16T04:39:22.020Z,98742.03
2023-02-16T04:44:43.482Z,98738.03
2023-02-16T04:50:04.669Z,98742.28
2023-02-16T04:55:25.676Z,98738.31
2023-02-16T05:00:46.540Z,98734.56
2023-02-16T05:06:07.388Z,98730.81
2023-02-16T05:11:46.795Z,98732.59
2023-02-16T05:17:11.701Z,98730.59
2023-02-16T05:22:36.060Z,98732.84
2023-02-16T05:27:56.762Z,98727.84
2023-02-16T05:33:17.969Z,98714.09
2023-02-16T05:38:39.200Z,98730.09
2023-02-16T05:44:01.201Z,98728.31
2023-02-16T05:49:21.932Z,98730.31
2023-02-16T05:54:42.656Z,98737.06
2023-02-16T06:00:04.476Z,98743.28
2023-02-16T06:05:25.412Z,98752.78
2023-02-16T06:10:46.410Z,98755.81
2023-02-16T06:16:08.389Z,98751.03
2023-02-16T06:21:29.385Z,98750.06
2023-02-16T06:26:50.314Z,98755.28
2023-02-16T06:32:11.199Z,98766.25
2023-02-16T06:37:32.300Z,98765.78
2023-02-16T06:42:53.185Z,98763.78
2023-02-16T06:48:14.289Z,98762.03
2023-02-16T06:53:35.214Z,98764.78
2023-02-16T06:58:55.937Z,98766.50
2023-02-16T07:04:16.893Z,98767.00
2023-02-16T07:09:37.615Z,98769.66
2023-02-16T07:14:58.781Z,98767.81
2023-02-16T07:20:19.603Z,98760.13
2023-02-16T07:25:40.508Z,98767.41
2023-02-16T07:31:12.353Z,98759.47
2023-02-16T07:36:33.672Z,98761.34
2023-02-16T07:41:54.418Z,98766.31
2023-02-16T07:47:15.416Z,98754.50
2023-02-16T07:52:36.019Z,98750.84
2023-02-16T07:57:57.049Z,98758.13
2023-02-16T08:03:18.444Z,98751.88
2023-02-16T08:08:39.647Z,98748.31
2023-02-16T08:14:00.707Z,98746.53
2023-02-16T08:19:21.564Z,98754.22
2023-02-16T08:24:43.513Z,98754.41
2023-02-16T08:30:05.010Z,98762.59
2023-02-16T08:35:26.234Z,98760.63
2023-02-16T08:40:50.872Z,98752.69
2023-02-16T08:46:11.769Z,98756.16
2023-02-16T08:51:35.010Z,98766.75
2023-02-16T08:56:56.893Z,98766.28
2023-02-16T09:02:18.232Z,98758.09
2023-02-16T09:07:39.532Z,98768.59
2023-02-16T09:13:00.284Z,98763.94
2023-02-16T09:18:21.633Z,98756.97
2023-02-16T09:23:44.927Z,98759.06
2023-02-16T09:29:07.210Z,98753.53
2023-02-16T09:34:32.424Z,98746.59
2023-02-16T09:39:56.991Z,98757.38
2023-02-16T09:45:18.314Z,98758.56
2023-02-16T09:50:53.350Z,98761.44
2023-02-16T09:56:25.926Z,98747.53
2023-02-16T10:01:48.249Z,98750.34
2023-02-16T10:07:27.608Z,98741.53
2023-02-16T10:13:09.379Z,98751.69
2023-02-16T10:18:41.108Z,98744.31
2023-02-16T10:24:03.967Z,98734.03
2023-02-16T10:29:25.516Z,98726.22
2023-02-16T10:34:49.938Z,98738.66
2023-02-16T10:40:27.755Z,98723.84
2023-02-16T10:45:55.351Z,98714.53
2023-02-16T10:51:16.823Z,98706.34
2023-02-16T10:56:37.733Z,98704.22
2023-02-16T11:01:59.962Z,98704.03
2023-02-16T11:07:22.202Z,98701.25
2023-02-16T11:12:43.134Z,98693.88
2023-02-16T11:18:06.245Z,98690.91
2023-02-16T11:23:31.979Z,98678.63
2023-02-16T11:28:53.365Z,98672.28
2023-02-16T11:34:24.571Z,98672.78
2023-02-16T11:39:51.537Z,98663.38
2023-02-16T11:45:24.748Z,98661.16
2023-02-16T11:51:06.605Z,98649.84
2023-02-16T11:56:29.358Z,98641.31
2023-02-16T12:02:24.922Z,98643.28
2023-02-16T12:08:14.561Z,98639.88
2023-02-16T12:13:45.013Z,98632.53
2023-02-16T12:19:19.073Z,98615.34
2023-02-16T12:25:12.367Z,98605.94
2023-02-16T12:30:44.971Z,98599.41
2023-02-16T12:36:21.754Z,98579.50
2023-02-16T12:42:20.110Z,98571.47
2023-02-16T12:47:47.801Z,98575.22
2023-02-16T12:53:27.735Z,98555.31
2023-02-16T12:58:54.033Z,98550.50
2023-02-16T13:04:24.093Z,98554.03
2023-02-16T13:10:02.339Z,98545.28
2023-02-16T13:15:28.198Z,98541.47
2023-02-16T13:20:53.909Z,98534.84
2023-02-16T13:26:41.282Z,98533.22
2023-02-16T13:32:10.667Z,98539.94
2023-02-16T13:37:34.618Z,98535.25
2023-02-16T13:43:26.676Z,98522.06
2023-02-16T13:48:48.876Z,98527.63
2023-02-16T13:54:26.943Z,98516.59
2023-02-16T13:59:49.640Z,98518.00
2023-02-16T14:05:10.584Z,98536.50
2023-02-16T14:10:56.156Z,98537.50
2023-02-16T14:16:17.623Z,98547.91
2023-02-16T14:21:48.375Z,98536.88
2023-02-16T14:27:11.631Z,98544.19
2023-02-16T14:32:38.650Z,98545.72
2023-02-16T14:37:59.452Z,98545.41
2023-02-16T14:43:43.419Z,98548.78
2023-02-16T14:49:24.133Z,98536.94
2023-02-16T14:54:57.565Z,98544.38
2023-02-16T15:00:24.296Z,98550.38
2023-02-16T15:06:06.727Z,98552.69
2023-02-16T15:12:06.054Z,98555.03
2023-02-16T15:17:33.957Z,98548.59
2023-02-16T15:22:57.028Z,98547.06
2023-02-16T15:28:21.996Z,98549.66
2023-02-16T15:33:43.172Z,98554.97
2023-02-16T15:39:41.261Z,98542.94
2023-02-16T15:45:28.097Z,98542.75
2023-02-16T15:50:49.139Z,98539.28
2023-02-16T15:56:28.949Z,98541.34
2023-02-16T16:01:49.943Z,98534.34
2023-02-16T16:07:13.583Z,98542.31
2023-02-16T16:12:34.481Z,98535.63
2023-02-16T16:17:56.043Z,98527.25
2023-02-16T16:23:16.905Z,98530.38
2023-02-16T16:28:38.088Z,98530.91
2023-02-16T16:34:09.657Z,98540.13
2023-02-16T16:39:32.281Z,98539.00
2023-02-16T16:45:22.102Z,98548.69
2023-02-16T16:50:43.290Z,98543.63
2023-02-16T16:56:11.773Z,98545.22
2023-02-16T17:01:32.472Z,98544.63
2023-02-16T17:06:53.420Z,98558.03
2023-02-16T17:12:15.367Z,98557.63
2023-02-16T17:17:36.333Z,98562.34
2023-02-16T17:22:58.748Z,98556.00
2023-02-16T17:28:19.980Z,98573.13
2023-02-16T17:33:41.298Z,98570.50
2023-02-16T17:39:02.554Z,98571.25
2023-02-16T17:44:23.161Z,98578.38
2023-02-16T17:49:43.944Z,98576.16
2023-02-16T17:55:05.312Z,98575.34
2023-02-16T18:00:26.355Z,98569.88
2023-02-16T18:05:47.158Z,98574.34
2023-02-16T18:11:07.911Z,98580.50
2023-02-16T18:16:28.697Z,98563.94
2023-02-16T18:21:49.792Z,98567.00
2023-02-16T18:27:10.593Z,98568.56
2023-02-16T18:32:32.033Z,98571.13
2023-02-16T18:37:53.052Z,98564.19
2023-02-16T18:43:14.025Z,98568.63
2023-02-16T18:48:35.226Z,98567.34
2023-02-16T18:53:57.523Z,98556.84
2023-02-16T18:59:19.054Z,98560.75
2023-02-16T19:04:40.429Z,98547.66
2023-02-16T19:10:01.991Z,98550.34
2023-02-16T19:15:23.268Z,98552.81
2023-02-16T19:20:44.568Z,98548.44
2023-02-16T19:26:11.205Z,98550.88
2023-02-16T19:31:35.506Z,98560.34
2023-02-16T19:36:56.719Z,98546.84
2023-02-16T19:42:17.788Z,98550.00
2023-02-16T19:47:38.621Z,98542.97
2023-02-16T19:53:03.631Z,98549.63
2023-02-16T19:58:27.501Z,98541.13
2023-02-16T20:03:49.236Z,98548.16
2023-02-16T20:09:14.918Z,98549.63
2023-02-16T20:14:36.676Z,98556.81
2023-02-16T20:20:00.104Z,98562.94
2023-02-16T20:25:21.747Z,98563.28
2023-02-16T20:30:43.032Z,98567.41
2023-02-16T20:36:04.944Z,98560.38
2023-02-16T20:41:26.535Z,98563.31
2023-02-16T20:46:47.678Z,98545.72
2023-02-16T20:52:10.721Z,98547.31
2023-02-16T20:57:31.860Z,98542.50
2023-02-16T21:02:53.334Z,98546.53
2023-02-16T21:08:14.245Z,98536.69
2023-02-16T21:13:35.607Z,98541.88
2023-02-16T21:18:56.936Z,98546.19
2023-02-16T21:24:17.953Z,98543.81
2023-02-16T21:29:38.717Z,98531.44
2023-02-16T21:34:59.765Z,98526.28
2023-02-16T21:40:39.022Z,98526.81
2023-02-16T21:46:01.004Z,98518.34
2023-02-16T21:51:24.406Z,98511.13
2023-02-16T21:56:50.325Z,98516.72
2023-02-16T22:02:11.572Z,98516.72
2023-02-16T22:07:33.521Z,98511.53
2023-02-16T22:12:55.671Z,98518.97
2023-02-16T22:18:16.689Z,98527.84
2023-02-16T22:23:37.542Z,98526.75
2023-02-16T22:28:58.861Z,98521.19
2023-02-16T22:34:21.893Z,98514.91
2023-02-16T22:39:42.763Z,98517.13
2023-02-16T22:45:04.026Z,98521.94
2023-02-16T22:50:24.737Z,98519.34
2023-02-16T22:55:45.617Z,98508.03
2023-02-16T23:01:11.332Z,98496.94
2023-02-16T23:06:34.880Z,98493.41
2023-02-16T23:11:55.993Z,98476.75
2023-02-16T23:17:16.781Z,98473.41
2023-02-16T23:22:37.596Z,98467.28
2023-02-16T23:27:58.571Z,98468.41
2023-02-16T23:33:19.721Z,98463.59
2023-02-16T23:38:40.508Z,98454.72
2023-02-16T23:44:01.469Z,98455.28
2023-02-16T23:49:22.286Z,98455.28
2023-02-16T23:54:43.277Z,98452.66
